createdAt,value
2023-05-16T00:00:09.354Z,85.64
2023-05-16T00:03:13.180Z,85.74
2023-05-16T00:06:16.955Z,85.52
2023-05-16T00:09:19.356Z,85.04
2023-05-16T00:12:22.833Z,85.21
2023-05-16T00:15:25.401Z,85.08
2023-05-16T00:18:28.770Z,84.87
2023-05-16T00:21:31.905Z,84.05
2023-05-16T00:24:34.926Z,82.62
2023-05-16T00:27:37.721Z,82.80
2023-05-16T00:30:40.777Z,82.99
2023-05-16T00:33:43.161Z,83.12
2023-05-16T00:36:45.532Z,83.64
2023-05-16T00:39:47.970Z,83.80
2023-05-16T00:42:50.374Z,83.93
2023-05-16T00:45:53.945Z,83.96
2023-05-16T00:48:56.564Z,83.83
2023-05-16T00:51:59.277Z,83.71
2023-05-16T00:55:02.576Z,84.22
2023-05-16T00:58:05.762Z,83.95
2023-05-16T01:01:08.859Z,83.94
2023-05-16T01:04:12.868Z,84.29
2023-05-16T01:07:15.468Z,85.54
2023-05-16T01:10:17.901Z,85.61
2023-05-16T01:14:00.936Z,85.19
2023-05-16T01:17:13.969Z,86.13
2023-05-16T01:20:33.875Z,86.37
2023-05-16T01:23:53.621Z,87.05
2023-05-16T01:26:56.568Z,87.71
2023-05-16T01:29:59.027Z,88.11
2023-05-16T01:33:01.459Z,88.24
2023-05-16T01:36:08.827Z,88.31
2023-05-16T01:39:29.597Z,88.83
2023-05-16T01:42:35.327Z,88.58
2023-05-16T01:45:44.200Z,88.24
2023-05-16T01:49:01.522Z,87.92
2023-05-16T01:52:10.728Z,87.88
2023-05-16T01:55:32.401Z,88.36
2023-05-16T01:58:37.314Z,88.80
2023-05-16T02:01:39.782Z,89.25
2023-05-16T02:04:42.192Z,89.03
2023-05-16T02:07:45.150Z,88.98
2023-05-16T02:10:47.689Z,89.36
2023-05-16T02:13:50.422Z,89.75
2023-05-16T02:16:52.985Z,89.75
2023-05-16T02:19:55.375Z,90.35
2023-05-16T02:22:57.862Z,90.46
2023-05-16T02:26:00.480Z,89.77
2023-05-16T02:29:03.198Z,89.64
2023-05-16T02:32:06.200Z,89.27
2023-05-16T02:35:08.861Z,89.56
2023-05-16T02:38:11.315Z,90.02
2023-05-16T02:41:13.814Z,90.60
2023-05-16T02:44:17.714Z,91.15
2023-05-16T02:47:20.165Z,91.63
2023-05-16T02:50:22.526Z,91.94
2023-05-16T02:53:24.951Z,92.06
2023-05-16T02:56:27.771Z,91.94
2023-05-16T02:59:30.285Z,92.23
2023-05-16T03:02:32.888Z,91.87
2023-05-16T03:05:35.586Z,92.27
2023-05-16T03:08:38.303Z,91.77
2023-05-16T03:11:40.850Z,91.75
2023-05-16T03:14:43.315Z,91.77
2023-05-16T03:17:45.823Z,91.89
2023-05-16T03:20:48.291Z,91.59
2023-05-16T03:23:51.378Z,91.68
2023-05-16T03:26:54.084Z,91.56
2023-05-16T03:29:56.892Z,91.58
2023-05-16T03:32:59.337Z,91.31
2023-05-16T03:36:02.143Z,90.82
2023-05-16T03:39:04.629Z,90.34
2023-05-16T03:42:07.725Z,88.96
2023-05-16T03:45:12.622Z,88.02
2023-05-16T03:48:15.138Z,88.30
2023-05-16T03:51:17.568Z,87.40
2023-05-16T03:54:19.966Z,86.98
2023-05-16T03:57:22.690Z,86.92
2023-05-16T04:00:25.639Z,86.60
2023-05-16T04:03:29.679Z,87.02
2023-05-16T04:06:32.748Z,86.80
2023-05-16T04:09:35.355Z,87.20
2023-05-16T04:12:38.219Z,86.86
2023-05-16T04:15:40.804Z,86.64
2023-05-16T04:18:43.262Z,85.78
2023-05-16T04:21:46.122Z,85.36
2023-05-16T04:24:49.154Z,84.59
2023-05-16T04:27:52.656Z,84.26
2023-05-16T04:30:55.540Z,83.75
2023-05-16T04:33:58.098Z,83.39
2023-05-16T04:37:00.480Z,83.19
2023-05-16T04:40:03.137Z,82.28
2023-05-16T04:43:06.773Z,81.80
2023-05-16T04:46:10.092Z,82.08
2023-05-16T04:49:12.964Z,82.67
2023-05-16T04:52:15.368Z,82.74
2023-05-16T04:55:17.960Z,81.56
2023-05-16T04:58:20.596Z,81.59
2023-05-16T05:01:23.108Z,81.25
2023-05-16T05:04:26.006Z,81.50
2023-05-16T05:07:29.226Z,81.28
2023-05-16T05:10:31.798Z,81.89
2023-05-16T05:13:34.225Z,82.10
2023-05-16T05:16:37.567Z,82.34
2023-05-16T05:19:40.029Z,82.05
2023-05-16T05:22:42.559Z,81.71
2023-05-16T05:25:45.612Z,81.54
2023-05-16T05:29:01.189Z,82.45
2023-05-16T05:32:08.426Z,82.94
2023-05-16T05:35:11.225Z,83.08
2023-05-16T05:38:13.657Z,83.38
2023-05-16T05:41:16.131Z,83.50
2023-05-16T05:44:18.562Z,82.96
2023-05-16T05:47:21.815Z,83.24
2023-05-16T05:50:24.356Z,82.99
2023-05-16T05:53:27.256Z,82.92
2023-05-16T05:56:29.738Z,84.89
2023-05-16T05:59:33.187Z,84.24
2023-05-16T06:02:36.774Z,84.22
2023-05-16T06:05:39.363Z,83.59
2023-05-16T06:08:41.833Z,84.39
2023-05-16T06:11:45.976Z,84.67
2023-05-16T06:14:48.523Z,85.02
2023-05-16T06:17:51.084Z,84.64
2023-05-16T06:20:54.144Z,83.66
2023-05-16T06:23:56.616Z,83.11
2023-05-16T06:26:59.269Z,83.36
2023-05-16T06:30:01.971Z,83.84
2023-05-16T06:33:04.460Z,83.64
2023-05-16T06:36:07.673Z,84.08
2023-05-16T06:39:11.710Z,84.12
2023-05-16T06:42:14.243Z,84.18
2023-05-16T06:45:16.773Z,84.77
2023-05-16T06:48:19.715Z,84.10
2023-05-16T06:51:22.314Z,84.54
2023-05-16T06:54:25.134Z,84.04
2023-05-16T06:57:29.490Z,84.61
2023-05-16T07:00:32.398Z,84.07
2023-05-16T07:03:35.072Z,83.38
2023-05-16T07:06:37.639Z,84.19
2023-05-16T07:09:40.074Z,84.32
2023-05-16T07:12:43.201Z,84.14
2023-05-16T07:15:45.687Z,83.62
2023-05-16T07:18:48.311Z,83.60
2023-05-16T07:21:50.920Z,84.00
2023-05-16T07:24:57.170Z,84.31
2023-05-16T07:28:01.015Z,84.58
2023-05-16T07:31:03.807Z,84.81
2023-05-16T07:34:06.950Z,84.73
2023-05-16T07:37:13.188Z,84.73
2023-05-16T07:40:15.774Z,84.57
2023-05-16T07:43:18.500Z,84.25
2023-05-16T07:46:21.118Z,84.80
2023-05-16T07:49:23.633Z,85.06
2023-05-16T07:52:26.399Z,85.73
2023-05-16T07:55:29.211Z,85.37
2023-05-16T07:58:31.799Z,87.10
2023-05-16T08:01:34.509Z,86.86
2023-05-16T08:04:37.731Z,87.66
2023-05-16T08:07:40.425Z,87.92
2023-05-16T08:10:42.904Z,88.04
2023-05-16T08:13:45.517Z,89.10
2023-05-16T08:16:48.137Z,88.48
2023-05-16T08:19:50.644Z,89.25
2023-05-16T08:22:53.758Z,88.76
2023-05-16T08:25:56.168Z,88.66
2023-05-16T08:28:58.592Z,89.03
2023-05-16T08:32:01.204Z,89.22
2023-05-16T08:35:06.664Z,89.39
2023-05-16T08:38:09.163Z,89.23
2023-05-16T08:41:11.828Z,88.96
2023-05-16T08:44:21.331Z,89.76
2023-05-16T08:47:27.208Z,89.35
2023-05-16T08:50:32.151Z,89.96
2023-05-16T08:53:41.432Z,89.72
2023-05-16T08:56:45.738Z,89.59
2023-05-16T08:59:48.252Z,90.17
2023-05-16T09:02:51.493Z,90.52
2023-05-16T09:05:54.005Z,89.87
2023-05-16T09:08:56.950Z,90.03
2023-05-16T09:11:59.454Z,89.99
2023-05-16T09:15:06.992Z,90.24
2023-05-16T09:18:14.124Z,90.33
2023-05-16T09:21:17.192Z,89.81
2023-05-16T09:24:26.402Z,90.56
2023-05-16T09:27:31.270Z,90.18
2023-05-16T09:30:35.065Z,90.10
2023-05-16T09:33:42.657Z,91.20
2023-05-16T09:36:45.119Z,90.71
2023-05-16T09:39:53.155Z,91.39
2023-05-16T09:43:07.647Z,90.94
2023-05-16T09:46:17.162Z,91.29
2023-05-16T09:49:20.171Z,91.86
2023-05-16T09:52:22.870Z,91.32
2023-05-16T09:55:25.950Z,91.82
2023-05-16T09:58:30.176Z,91.13
2023-05-16T10:01:33.265Z,91.81
2023-05-16T10:04:36.023Z,92.03
2023-05-16T10:07:40.570Z,91.95
2023-05-16T10:10:43.287Z,92.15
2023-05-16T10:13:50.736Z,91.77
2023-05-16T10:16:53.821Z,91.86
2023-05-16T10:19:56.514Z,91.89
2023-05-16T10:22:59.863Z,91.94
2023-05-16T10:26:06.103Z,91.89
2023-05-16T10:29:10.379Z,90.88
2023-05-16T10:32:14.016Z,90.98
2023-05-16T10:35:16.800Z,91.26
2023-05-16T10:38:21.399Z,91.13
2023-05-16T10:41:24.448Z,91.34
2023-05-16T10:44:27.064Z,91.04
2023-05-16T10:47:29.569Z,90.22
2023-05-16T10:50:36.880Z,89.86
2023-05-16T10:53:39.602Z,89.62
2023-05-16T10:56:43.354Z,88.93
2023-05-16T10:59:50.861Z,89.48
2023-05-16T11:02:53.907Z,90.04
2023-05-16T11:06:01.706Z,89.90
2023-05-16T11:09:10.545Z,90.99
2023-05-16T11:12:13.781Z,90.79
2023-05-16T11:15:35.004Z,91.08
2023-05-16T11:18:52.615Z,91.20
2023-05-16T11:22:22.051Z,91.17
2023-05-16T11:25:39.355Z,91.47
2023-05-16T11:28:42.038Z,90.99
2023-05-16T11:31:44.693Z,90.80
2023-05-16T11:34:48.301Z,90.99
2023-05-16T11:37:51.330Z,91.10
2023-05-16T11:40:54.259Z,90.43
2023-05-16T11:43:56.908Z,90.54
2023-05-16T11:47:00.500Z,90.03
2023-05-16T11:50:14.736Z,89.88
2023-05-16T11:53:17.787Z,90.80
2023-05-16T11:56:22.384Z,90.62
2023-05-16T11:59:25.012Z,90.23
2023-05-16T12:02:30.099Z,90.98
2023-05-16T12:05:34.596Z,90.05
2023-05-16T12:08:37.681Z,89.53
2023-05-16T12:11:44.719Z,89.38
2023-05-16T12:14:47.780Z,89.01
2023-05-16T12:17:50.994Z,89.68
2023-05-16T12:20:55.068Z,88.83
2023-05-16T12:24:00.979Z,88.73
2023-05-16T12:27:03.977Z,87.73
2023-05-16T12:30:09.615Z,87.65
2023-05-16T12:33:15.080Z,88.34
2023-05-16T12:36:17.889Z,87.85
2023-05-16T12:39:21.249Z,88.23
2023-05-16T12:42:23.664Z,88.09
2023-05-16T12:45:29.295Z,88.34
2023-05-16T12:48:36.558Z,89.37
2023-05-16T12:51:39.624Z,88.80
2023-05-16T12:54:42.682Z,88.96
2023-05-16T12:57:47.647Z,87.82
2023-05-16T13:00:50.479Z,88.59
2023-05-16T13:03:54.044Z,88.43
2023-05-16T13:06:59.624Z,88.38
2023-05-16T13:10:03.224Z,88.31
2023-05-16T13:13:05.839Z,88.36
2023-05-16T13:16:10.499Z,88.17
2023-05-16T13:19:13.267Z,87.24
2023-05-16T13:22:16.583Z,87.03
2023-05-16T13:25:19.192Z,87.78
2023-05-16T13:28:22.030Z,86.80
2023-05-16T13:31:24.970Z,87.27
2023-05-16T13:34:31.071Z,87.71
2023-05-16T13:37:33.861Z,87.29
2023-05-16T13:40:36.752Z,87.53
2023-05-16T13:43:39.448Z,87.47
2023-05-16T13:46:42.000Z,87.38
2023-05-16T13:49:44.841Z,86.87
2023-05-16T13:52:48.831Z,87.40
2023-05-16T13:55:51.364Z,87.05
2023-05-16T13:59:03.926Z,85.62
2023-05-16T14:02:09.436Z,84.02
2023-05-16T14:05:12.128Z,83.08
2023-05-16T14:08:14.593Z,82.09
2023-05-16T14:11:19.620Z,81.16
2023-05-16T14:14:22.671Z,82.89
2023-05-16T14:17:25.136Z,81.23
2023-05-16T14:20:27.749Z,80.96
2023-05-16T14:23:30.274Z,80.02
2023-05-16T14:26:32.860Z,80.13
2023-05-16T14:29:35.359Z,80.95
2023-05-16T14:32:38.310Z,82.97
2023-05-16T14:35:41.161Z,82.31
2023-05-16T14:38:43.861Z,82.85
2023-05-16T14:41:46.950Z,82.81
2023-05-16T14:44:50.998Z,83.38
2023-05-16T14:47:53.470Z,84.14
2023-05-16T14:50:56.130Z,83.77
2023-05-16T14:53:58.920Z,84.06
2023-05-16T14:57:01.748Z,84.55
2023-05-16T15:00:05.830Z,85.08
2023-05-16T15:03:08.358Z,86.04
2023-05-16T15:06:11.278Z,86.06
2023-05-16T15:09:13.962Z,86.54
2023-05-16T15:12:16.616Z,86.74
2023-05-16T15:15:19.335Z,86.57
2023-05-16T15:18:21.968Z,86.69
2023-05-16T15:21:24.493Z,86.61
2023-05-16T15:24:27.009Z,86.94
2023-05-16T15:27:30.267Z,87.83
2023-05-16T15:30:32.864Z,87.67
2023-05-16T15:33:35.522Z,87.90
2023-05-16T15:36:40.896Z,89.94
2023-05-16T15:39:43.464Z,89.34
2023-05-16T15:42:46.159Z,90.46
2023-05-16T15:45:48.653Z,89.95
2023-05-16T15:48:51.092Z,90.91
2023-05-16T15:51:54.212Z,90.69
2023-05-16T15:54:56.874Z,90.58
2023-05-16T15:57:59.743Z,91.07
2023-05-16T16:01:02.780Z,91.66
2023-05-16T16:04:05.968Z,92.64
2023-05-16T16:07:08.585Z,92.59
2023-05-16T16:10:11.852Z,93.17
2023-05-16T16:13:16.648Z,92.80
2023-05-16T16:16:19.237Z,92.80
2023-05-16T16:19:21.905Z,93.28
2023-05-16T16:22:24.888Z,93.36
2023-05-16T16:25:27.672Z,93.72
2023-05-16T16:28:30.490Z,94.07
2023-05-16T16:31:33.242Z,94.21
2023-05-16T16:34:35.957Z,93.96
2023-05-16T16:37:38.880Z,94.13
2023-05-16T16:40:41.731Z,94.32
2023-05-16T16:43:44.287Z,93.93
2023-05-16T16:46:46.853Z,93.60
2023-05-16T16:49:49.546Z,94.35
2023-05-16T16:52:53.984Z,94.40
2023-05-16T16:55:56.526Z,94.56
2023-05-16T16:58:59.013Z,94.35
2023-05-16T17:02:01.654Z,93.82
2023-05-16T17:05:06.666Z,94.45
2023-05-16T17:08:09.218Z,94.12
2023-05-16T17:11:11.745Z,94.94
2023-05-16T17:14:14.899Z,94.91
2023-05-16T17:17:18.562Z,95.14
2023-05-16T17:20:21.159Z,96.08
2023-05-16T17:23:23.642Z,96.40
2023-05-16T17:26:27.430Z,96.09
2023-05-16T17:29:30.747Z,96.48
2023-05-16T17:32:33.874Z,96.38
2023-05-16T17:35:36.795Z,96.57
2023-05-16T17:38:39.523Z,96.54
2023-05-16T17:41:42.506Z,96.56
2023-05-16T17:44:45.674Z,96.66
2023-05-16T17:47:48.793Z,96.76
2023-05-16T17:50:51.610Z,96.96
2023-05-16T17:53:54.649Z,96.92
2023-05-16T17:56:57.611Z,97.20
2023-05-16T18:00:00.619Z,96.82
2023-05-16T18:03:03.350Z,97.26
2023-05-16T18:06:07.280Z,97.49
2023-05-16T18:09:10.540Z,97.31
2023-05-16T18:12:13.383Z,97.27
2023-05-16T18:15:16.320Z,97.78
2023-05-16T18:18:19.137Z,97.80
2023-05-16T18:21:21.824Z,98.06
2023-05-16T18:24:24.641Z,98.06
2023-05-16T18:27:27.248Z,98.15
2023-05-16T18:30:30.426Z,98.43
2023-05-16T18:33:33.416Z,98.57
2023-05-16T18:36:36.333Z,98.76
2023-05-16T18:39:39.070Z,98.64
2023-05-16T18:42:41.932Z,98.72
2023-05-16T18:45:44.765Z,98.41
2023-05-16T18:48:47.339Z,98.45
2023-05-16T18:51:49.904Z,98.18
2023-05-16T18:54:52.700Z,98.08
2023-05-16T18:57:55.547Z,98.87
2023-05-16T19:00:58.414Z,99.22
2023-05-16T19:04:01.299Z,99.22
2023-05-16T19:07:05.167Z,99.66
2023-05-16T19:10:09.248Z,99.76
2023-05-16T19:13:11.858Z,99.56
2023-05-16T19:16:15.172Z,99.35
2023-05-16T19:19:18.012Z,99.18
2023-05-16T19:22:21.003Z,99.38
2023-05-16T19:25:23.487Z,99.20
2023-05-16T19:28:26.569Z,98.90
2023-05-16T19:31:29.487Z,98.82
2023-05-16T19:34:33.241Z,99.11
2023-05-16T19:37:35.779Z,99.60
2023-05-16T19:40:38.221Z,99.36
2023-05-16T19:43:40.734Z,99.34
2023-05-16T19:46:43.231Z,99.23
2023-05-16T19:49:46.112Z,99.50
2023-05-16T19:52:48.648Z,99.65
2023-05-16T19:55:51.301Z,100.00
2023-05-16T19:58:54.004Z,100.00
2023-05-16T20:01:56.428Z,100.00
2023-05-16T20:04:58.936Z,100.00
2023-05-16T20:14:08.893Z,100.00
2023-05-16T20:17:11.397Z,100.00
2023-05-16T20:20:13.947Z,100.00
2023-05-16T20:23:49.075Z,100.00
2023-05-16T20:26:51.602Z,100.00
2023-05-16T20:36:00.869Z,100.00
2023-05-16T20:39:04.042Z,100.00
2023-05-16T20:42:11.117Z,100.00
2023-05-16T20:45:13.771Z,100.00
2023-05-16T20:48:16.573Z,100.00
2023-05-16T20:51:19.161Z,100.00
2023-05-16T20:54:21.698Z,99.97
2023-05-16T20:57:24.525Z,99.56
2023-05-16T21:00:26.980Z,99.82
2023-05-16T21:03:29.582Z,99.79
2023-05-16T21:06:32.314Z,99.55
2023-05-16T21:09:37.202Z,99.67
2023-05-16T21:12:39.790Z,99.85
2023-05-16T21:15:42.281Z,99.54
2023-05-16T21:18:44.942Z,99.67
2023-05-16T21:21:47.559Z,99.38
2023-05-16T21:24:50.354Z,99.28
2023-05-16T21:27:53.106Z,99.01
2023-05-16T21:30:56.279Z,99.42
2023-05-16T21:33:58.745Z,99.45
2023-05-16T21:37:01.794Z,99.62
2023-05-16T21:40:04.579Z,98.95
2023-05-16T21:43:07.162Z,98.98
2023-05-16T21:46:09.688Z,98.33
2023-05-16T21:49:12.280Z,97.92
2023-05-16T21:52:14.793Z,98.06
2023-05-16T21:55:17.640Z,98.39
2023-05-16T21:58:20.170Z,98.29
2023-05-16T22:01:25.338Z,98.25
2023-05-16T22:04:28.105Z,98.64
2023-05-16T22:07:31.742Z,98.37
2023-05-16T22:10:34.431Z,98.51
2023-05-16T22:13:38.342Z,98.44
2023-05-16T22:16:41.109Z,98.59
2023-05-16T22:19:43.793Z,99.12
2023-05-16T22:22:46.391Z,99.35
2023-05-16T22:25:48.912Z,99.58
2023-05-16T22:28:51.405Z,99.00
2023-05-16T22:31:54.265Z,98.73
2023-05-16T22:34:57.275Z,98.89
2023-05-16T22:37:59.904Z,99.58
2023-05-16T22:41:02.414Z,99.21
2023-05-16T22:44:05.335Z,99.24
2023-05-16T22:47:08.020Z,99.33
2023-05-16T22:50:11.477Z,99.53
2023-05-16T22:53:13.988Z,99.36
2023-05-16T22:56:16.501Z,99.30
2023-05-16T22:59:19.033Z,99.66
2023-05-16T23:02:21.536Z,100.00
2023-05-16T23:05:24.005Z,99.81
2023-05-16T23:08:26.572Z,100.00
2023-05-16T23:11:29.065Z,100.00
2023-05-16T23:14:31.694Z,100.00
2023-05-16T23:17:34.240Z,100.00
2023-05-16T23:20:37.635Z,100.00
2023-05-16T23:23:40.320Z,100.00
2023-05-16T23:26:42.783Z,100.00
2023-05-16T23:29:45.671Z,100.00
2023-05-16T23:32:48.265Z,100.00
2023-05-16T23:35:50.795Z,100.00
2023-05-16T23:38:53.542Z,100.00
2023-05-16T23:41:56.055Z,100.00
2023-05-16T23:44:58.507Z,100.00
2023-05-16T23:48:01.061Z,100.00
2023-05-16T23:51:07.394Z,100.00
2023-05-16T23:54:09.916Z,100.00
2023-05-16T23:57:12.414Z,100.00
